Time;durP1;ratioP1;P1;durP2;ratioP2;P2;SDS_P1;SDS_P2;PMS_P1;PMS_P2;Temp;Humidity;BMP_temperature;BMP_pressure;BME280_temperature;BME280_humidity;BME280_pressure;Samples;Min_cycle;Max_cycle;Signal;HPM_P1;HPM_P2
2021/01/03 00:00:19;;;;;;;13.40;8.90;;;1.80;99.90;;;;;;4973602;28;20027;-83
2021/01/03 00:02:46;;;;;;;13.40;8.98;;;1.80;99.90;;;;;;4973629;28;20031;-83
2021/01/03 00:05:14;;;;;;;11.52;7.63;;;1.90;99.90;;;;;;4974794;28;20031;-83
2021/01/03 00:07:40;;;;;;;12.48;8.77;;;1.80;99.90;;;;;;4974763;28;20015;-83
2021/01/03 00:10:07;;;;;;;11.15;7.57;;;1.90;99.90;;;;;;4973468;28;20031;-84
2021/01/03 00:12:33;;;;;;;12.88;8.52;;;1.80;99.90;;;;;;4973443;28;20023;-83
2021/01/03 00:14:59;;;;;;;11.63;8.10;;;1.80;99.90;;;;;;4973401;28;20548;-84
2021/01/03 00:17:25;;;;;;;10.73;7.95;;;1.90;99.90;;;;;;4973374;28;20027;-83
2021/01/03 00:19:50;;;;;;;11.95;8.80;;;1.90;99.90;;;;;;4973300;28;20081;-83
2021/01/03 00:22:16;;;;;;;11.20;7.78;;;1.80;99.90;;;;;;4973379;28;20023;-84
2021/01/03 00:24:42;;;;;;;10.38;7.82;;;1.80;99.90;;;;;;4973224;28;20027;-83
2021/01/03 00:27:08;;;;;;;12.30;8.57;;;1.80;99.90;;;;;;4974797;28;20030;-83
2021/01/03 00:29:34;;;;;;;12.02;8.23;;;1.80;99.90;;;;;;4974564;28;20426;-83
2021/01/03 00:32:00;;;;;;;11.45;8.40;;;1.80;99.90;;;;;;4973075;28;20034;-83
2021/01/03 00:34:27;;;;;;;12.50;8.40;;;1.90;99.90;;;;;;4973309;28;20030;-84
2021/01/03 00:36:53;;;;;;;12.18;7.80;;;1.90;99.90;;;;;;4974521;28;20030;-84
2021/01/03 00:39:19;;;;;;;12.18;8.20;;;2.00;99.90;;;;;;4974404;28;20042;-84
2021/01/03 00:41:49;;;;;;;10.45;7.50;;;2.00;99.90;;;;;;4973169;28;20019;-83
2021/01/03 00:44:15;;;;;;;11.32;8.10;;;1.90;99.90;;;;;;4973178;28;20026;-83
2021/01/03 00:46:41;;;;;;;11.45;7.93;;;1.90;99.90;;;;;;4974445;28;20023;-83
2021/01/03 00:49:07;;;;;;;10.95;7.75;;;1.80;99.90;;;;;;4974343;28;20027;-83
2021/01/03 00:51:32;;;;;;;11.20;7.35;;;2.00;99.90;;;;;;4974450;28;20027;-83
2021/01/03 00:53:59;;;;;;;12.45;8.35;;;1.90;99.90;;;;;;4976853;28;20031;-83
2021/01/03 00:56:25;;;;;;;11.07;8.45;;;1.90;99.90;;;;;;4976817;28;20030;-83
2021/01/03 00:58:52;;;;;;;10.57;7.47;;;1.90;99.90;;;;;;4976748;28;20477;-84
2021/01/03 01:01:19;;;;;;;12.18;8.20;;;1.90;99.90;;;;;;4976768;28;20049;-84
2021/01/03 01:03:44;;;;;;;11.90;8.23;;;1.90;99.90;;;;;;4976662;28;20027;-84
2021/01/03 01:06:10;;;;;;;12.18;7.97;;;1.80;99.90;;;;;;4977847;28;20050;-84
2021/01/03 01:08:36;;;;;;;9.98;7.53;;;1.80;99.90;;;;;;4976597;28;20027;-84
2021/01/03 01:11:05;;;;;;;12.07;7.82;;;1.80;99.90;;;;;;4976616;28;20082;-83
2021/01/03 01:13:30;;;;;;;10.65;7.57;;;1.80;99.90;;;;;;4977764;28;20027;-83
2021/01/03 01:15:56;;;;;;;10.85;7.55;;;1.80;99.90;;;;;;4977731;28;20077;-83
2021/01/03 01:18:22;;;;;;;9.73;7.63;;;1.80;99.90;;;;;;4976337;28;20029;-84
2021/01/03 01:20:48;;;;;;;10.15;7.75;;;1.80;99.90;;;;;;4976344;28;20474;-84
2021/01/03 01:23:13;;;;;;;12.70;7.93;;;1.70;99.90;;;;;;4976210;28;20022;-83
2021/01/03 01:25:39;;;;;;;11.98;8.27;;;1.80;99.90;;;;;;4976264;28;20027;-83
2021/01/03 01:28:05;;;;;;;13.48;7.75;;;1.80;99.90;;;;;;4976239;28;20019;-83
2021/01/03 01:30:32;;;;;;;10.68;7.07;;;1.80;99.90;;;;;;4976210;28;20487;-83
2021/01/03 01:33:00;;;;;;;12.93;7.72;;;1.80;99.90;;;;;;4977213;28;20043;-83
2021/01/03 01:35:29;;;;;;;13.07;7.90;;;2.00;99.90;;;;;;4977408;28;20045;-83
2021/01/03 01:37:55;;;;;;;9.70;6.57;;;1.90;99.90;;;;;;4976007;28;20034;-83
2021/01/03 01:40:26;;;;;;;11.10;7.35;;;2.10;99.90;;;;;;4976069;28;20355;-84
2021/01/03 01:42:52;;;;;;;10.38;6.88;;;2.10;99.90;;;;;;4976013;28;20046;-84
2021/01/03 01:45:21;;;;;;;11.70;7.80;;;2.00;99.90;;;;;;4976153;28;20037;-84
2021/01/03 01:47:50;;;;;;;10.55;7.28;;;2.00;99.90;;;;;;4975900;28;20129;-84
2021/01/03 01:50:23;;;;;;;12.38;7.10;;;2.00;99.90;;;;;;4975846;28;20482;-83
2021/01/03 01:52:55;;;;;;;11.48;7.63;;;2.00;99.90;;;;;;4977090;28;20114;-84
2021/01/03 01:55:25;;;;;;;12.10;7.60;;;2.00;99.90;;;;;;4975797;28;20034;-84
2021/01/03 01:58:25;;;;;;;9.55;7.30;;;1.90;99.90;;;;;;4976963;28;20105;-84
2021/01/03 02:00:57;;;;;;;10.02;7.13;;;2.00;99.90;;;;;;4975680;28;20026;-84
2021/01/03 02:03:49;;;;;;;9.98;6.88;;;2.00;99.90;;;;;;4975479;28;20078;-83
2021/01/03 02:06:32;;;;;;;10.65;7.22;;;2.00;99.90;;;;;;4975469;28;20035;-83
2021/01/03 02:09:10;;;;;;;8.10;6.55;;;2.00;99.90;;;;;;4975568;28;20046;-84
2021/01/03 02:11:35;;;;;;;10.25;7.43;;;1.90;99.90;;;;;;4975528;28;20027;-84
2021/01/03 02:14:04;;;;;;;11.07;7.63;;;1.90;99.90;;;;;;4976651;28;20033;-84
2021/01/03 02:16:33;;;;;;;13.07;7.45;;;1.90;99.90;;;;;;4976901;28;20031;-84
2021/01/03 02:18:59;;;;;;;10.45;7.57;;;1.90;99.90;;;;;;4975271;28;20034;-84
2021/01/03 02:21:27;;;;;;;11.38;7.28;;;1.80;99.90;;;;;;4975265;28;20410;-84
2021/01/03 02:24:14;;;;;;;13.02;8.07;;;1.90;99.90;;;;;;4975141;28;20114;-84
2021/01/03 02:27:05;;;;;;;9.95;6.57;;;1.80;99.90;;;;;;4975190;28;20122;-84
2021/01/03 02:29:34;;;;;;;8.55;6.38;;;1.90;99.90;;;;;;4975813;28;20553;-84
2021/01/03 02:32:03;;;;;;;10.45;7.35;;;2.00;99.90;;;;;;4974870;28;20031;-84
2021/01/03 02:34:40;;;;;;;9.05;6.80;;;2.00;99.90;;;;;;4976341;28;20126;-84
2021/01/03 02:37:20;;;;;;;10.07;7.40;;;2.10;99.90;;;;;;4975071;28;20459;-84
2021/01/03 02:39:52;;;;;;;10.50;6.97;;;2.00;99.90;;;;;;4974931;28;20041;-84
2021/01/03 02:42:28;;;;;;;9.40;7.15;;;2.00;99.90;;;;;;4974954;28;20110;-84
2021/01/03 02:44:55;;;;;;;12.18;7.63;;;1.90;99.90;;;;;;4974892;28;20114;-84
2021/01/03 02:47:25;;;;;;;11.15;7.85;;;1.90;99.90;;;;;;4974792;28;20113;-84
2021/01/03 02:49:51;;;;;;;11.75;7.90;;;1.80;99.90;;;;;;4976066;28;20037;-84
2021/01/03 02:52:28;;;;;;;9.07;7.18;;;1.80;99.90;;;;;;4974791;28;20031;-83
2021/01/03 02:54:53;;;;;;;9.55;7.40;;;1.90;99.90;;;;;;4975951;28;20508;-83
2021/01/03 02:57:19;;;;;;;13.35;7.97;;;1.90;99.90;;;;;;4974654;28;20035;-84
2021/01/03 02:59:45;;;;;;;11.25;8.00;;;1.90;99.90;;;;;;4974460;28;20478;-83
2021/01/03 03:02:11;;;;;;;14.05;7.78;;;1.70;99.90;;;;;;4975801;28;20027;-83
2021/01/03 03:04:36;;;;;;;12.38;8.30;;;1.80;99.90;;;;;;4975775;28;20126;-83
2021/01/03 03:07:02;;;;;;;13.32;8.02;;;1.80;99.90;;;;;;4975675;28;20026;-84
2021/01/03 03:09:28;;;;;;;12.90;8.70;;;1.70;99.90;;;;;;4974396;28;20057;-84
2021/01/03 03:11:54;;;;;;;11.32;8.32;;;1.60;99.90;;;;;;4974354;28;20067;-84
2021/01/03 03:14:19;;;;;;;12.90;8.68;;;1.60;99.90;;;;;;4973759;28;20033;-83
2021/01/03 03:16:45;;;;;;;12.93;9.15;;;1.60;99.90;;;;;;4974319;28;20026;-84
2021/01/03 03:19:11;;;;;;;13.23;8.95;;;1.60;99.90;;;;;;4975395;28;20066;-83
2021/01/03 03:21:37;;;;;;;12.30;8.73;;;1.60;99.90;;;;;;4974208;28;20023;-83
2021/01/03 03:24:03;;;;;;;13.02;9.40;;;1.60;99.90;;;;;;4974063;28;20023;-83
2021/01/03 03:26:29;;;;;;;14.50;9.88;;;1.50;99.90;;;;;;4974094;28;20049;-83
2021/01/03 03:28:55;;;;;;;14.63;9.20;;;1.50;99.90;;;;;;4974087;28;20027;-83
2021/01/03 03:31:27;;;;;;;12.48;9.18;;;1.50;99.90;;;;;;4974053;28;20041;-83
2021/01/03 03:33:52;;;;;;;11.93;9.18;;;1.50;99.90;;;;;;4973965;28;20046;-83
2021/01/03 03:36:18;;;;;;;15.25;9.38;;;1.40;99.90;;;;;;4975456;28;20034;-84
2021/01/03 03:38:44;;;;;;;11.93;9.05;;;1.40;99.90;;;;;;4973841;28;20486;-83
2021/01/03 03:41:26;;;;;;;12.15;8.85;;;1.50;99.90;;;;;;4973872;28;20435;-83
2021/01/03 03:43:52;;;;;;;13.10;8.90;;;1.70;99.90;;;;;;4975390;28;20043;-84
2021/01/03 03:46:18;;;;;;;12.93;8.43;;;1.70;99.90;;;;;;4974050;28;20031;-84
2021/01/03 03:48:45;;;;;;;12.65;9.07;;;1.80;99.90;;;;;;4973709;28;20077;-83
2021/01/03 03:51:18;;;;;;;13.25;9.43;;;1.70;99.90;;;;;;4973737;28;20046;-83
2021/01/03 03:53:44;;;;;;;13.20;9.13;;;1.60;99.90;;;;;;4975060;28;20392;-83
2021/01/03 03:56:11;;;;;;;12.93;9.05;;;1.70;99.90;;;;;;4973644;28;20035;-83
2021/01/03 03:58:37;;;;;;;14.20;9.73;;;1.70;99.90;;;;;;4974802;28;20030;-83
2021/01/03 04:01:03;;;;;;;13.13;9.07;;;1.70;99.90;;;;;;4973558;28;20030;-83
2021/01/03 04:03:29;;;;;;;14.65;9.75;;;1.70;99.90;;;;;;4973569;28;20383;-84
2021/01/03 04:05:54;;;;;;;14.68;9.70;;;1.50;99.90;;;;;;4975094;28;20034;-83
2021/01/03 04:08:20;;;;;;;14.10;9.70;;;1.60;99.90;;;;;;4975046;28;20106;-84
2021/01/03 04:10:46;;;;;;;11.98;8.90;;;1.50;99.90;;;;;;4973482;28;20545;-83
2021/01/03 04:13:12;;;;;;;16.55;10.18;;;1.60;99.90;;;;;;4973746;28;20109;-83
2021/01/03 04:15:38;;;;;;;13.38;9.05;;;1.60;99.90;;;;;;4973470;28;20027;-83
2021/01/03 04:18:05;;;;;;;12.75;9.45;;;1.80;99.90;;;;;;4973347;28;20395;-83
2021/01/03 04:20:31;;;;;;;14.07;9.98;;;1.80;99.90;;;;;;4974686;28;20359;-84
2021/01/03 04:22:57;;;;;;;12.75;9.35;;;1.80;99.90;;;;;;4973321;28;20117;-84
2021/01/03 04:25:23;;;;;;;14.38;10.02;;;1.90;99.90;;;;;;4973414;28;20114;-84
2021/01/03 04:27:52;;;;;;;13.25;10.00;;;1.80;99.90;;;;;;4976934;28;20429;-84
2021/01/03 04:30:18;;;;;;;13.57;9.65;;;1.70;99.90;;;;;;4977332;28;20478;-84
2021/01/03 04:32:44;;;;;;;12.98;9.07;;;1.70;99.90;;;;;;4977006;28;20122;-84
2021/01/03 04:35:10;;;;;;;14.20;10.43;;;1.90;99.90;;;;;;4977201;28;20166;-84
2021/01/03 04:37:36;;;;;;;13.73;9.82;;;1.70;99.90;;;;;;4977175;28;20045;-84
2021/01/03 04:40:05;;;;;;;15.02;10.55;;;1.80;99.90;;;;;;4977093;28;20031;-84
2021/01/03 04:42:33;;;;;;;13.90;10.02;;;1.90;99.90;;;;;;4977147;28;20027;-84
2021/01/03 04:45:11;;;;;;;12.70;10.23;;;1.80;99.90;;;;;;4978366;28;20380;-84
2021/01/03 04:48:00;;;;;;;11.60;9.23;;;1.80;99.90;;;;;;4993284;28;20026;-84
2021/01/03 04:50:58;;;;;;;13.65;9.80;;;1.80;99.90;;;;;;4977207;28;20061;-84
2021/01/03 04:53:35;;;;;;;15.07;10.18;;;1.90;99.90;;;;;;4976942;28;20537;-84
2021/01/03 04:56:01;;;;;;;14.40;10.75;;;1.80;99.90;;;;;;4993071;28;20023;-84
2021/01/03 04:58:33;;;;;;;13.82;10.13;;;1.60;99.90;;;;;;4993178;28;20031;-84
2021/01/03 05:01:12;;;;;;;15.38;10.85;;;1.70;99.90;;;;;;4976811;28;20582;-84
2021/01/03 05:04:04;;;;;;;12.45;9.35;;;1.60;99.90;;;;;;4978077;28;20093;-84
2021/01/03 05:06:30;;;;;;;14.25;10.50;;;1.80;99.90;;;;;;4977963;28;20027;-84
2021/01/03 05:08:59;;;;;;;14.63;9.98;;;1.80;99.90;;;;;;4976617;28;20023;-84
2021/01/03 05:11:51;;;;;;;15.40;10.77;;;1.80;99.90;;;;;;4976628;28;20475;-85
2021/01/03 05:14:20;;;;;;;14.20;10.27;;;1.60;99.90;;;;;;4976508;28;20027;-84
2021/01/03 05:16:52;;;;;;;13.65;9.70;;;1.70;99.90;;;;;;4976468;28;20035;-85
2021/01/03 05:19:18;;;;;;;13.30;10.60;;;1.70;99.90;;;;;;4976403;28;20031;-85
2021/01/03 05:21:50;;;;;;;13.25;10.20;;;1.80;99.90;;;;;;4976388;28;20027;-84
2021/01/03 05:24:17;;;;;;;14.70;10.90;;;1.70;99.90;;;;;;4976240;28;20030;-85
2021/01/03 05:26:43;;;;;;;16.10;11.07;;;1.70;99.90;;;;;;4977597;28;20030;-85
2021/01/03 05:29:19;;;;;;;15.43;10.57;;;1.50;99.90;;;;;;4976298;28;20031;-85
2021/01/03 05:32:03;;;;;;;15.25;10.88;;;1.70;99.90;;;;;;4976234;28;20027;-85
2021/01/03 05:34:32;;;;;;;13.55;9.68;;;1.70;99.90;;;;;;4976253;28;20073;-85
2021/01/03 05:37:10;;;;;;;14.77;10.32;;;1.80;99.90;;;;;;4976819;28;20133;-84
2021/01/03 05:39:37;;;;;;;14.50;11.07;;;1.80;99.90;;;;;;4977582;28;20033;-85
2021/01/03 05:42:18;;;;;;;14.05;10.45;;;1.70;99.90;;;;;;4975988;28;20026;-84
2021/01/03 05:45:26;;;;;;;14.82;11.25;;;1.80;99.90;;;;;;4992222;28;20499;-84
2021/01/03 05:48:02;;;;;;;14.43;10.57;;;1.70;99.90;;;;;;4975822;28;20025;-84
2021/01/03 05:50:41;;;;;;;12.35;9.05;;;1.70;99.90;;;;;;4975876;28;20078;-85
2021/01/03 05:53:25;;;;;;;14.32;10.13;;;1.90;99.90;;;;;;4975886;28;20526;-85
2021/01/03 05:56:00;;;;;;;13.93;10.32;;;1.90;99.90;;;;;;4977104;28;20022;-84
2021/01/03 05:58:42;;;;;;;15.70;11.02;;;1.90;99.90;;;;;;4975667;28;20027;-85
2021/01/03 06:01:20;;;;;;;14.77;10.73;;;1.80;99.90;;;;;;4975703;28;20050;-85
2021/01/03 06:04:02;;;;;;;13.13;10.15;;;1.60;99.90;;;;;;4975967;28;20117;-85
2021/01/03 06:06:50;;;;;;;12.55;9.27;;;1.70;99.90;;;;;;4991815;28;20027;-85
2021/01/03 06:09:30;;;;;;;13.65;10.35;;;1.80;99.90;;;;;;4975567;28;20027;-85
2021/01/03 06:12:06;;;;;;;14.00;10.65;;;1.50;99.90;;;;;;4975543;28;20462;-84
2021/01/03 06:14:32;;;;;;;13.63;9.43;;;1.60;99.90;;;;;;4976995;28;20478;-84
2021/01/03 06:17:27;;;;;;;13.25;9.82;;;1.70;99.90;;;;;;4975435;28;20631;-84
2021/01/03 06:19:54;;;;;;;;;;;1.70;99.90;;;;;;4963013;28;20042;-84
2021/01/03 06:22:35;;;;;;;13.55;10.23;;;1.70;99.90;;;;;;4975300;28;19953;-84
2021/01/03 06:25:08;;;;;;;15.80;11.60;;;1.60;99.90;;;;;;4991421;28;20029;-84
2021/01/03 06:27:34;;;;;;;14.45;10.32;;;1.50;99.90;;;;;;4975451;28;20045;-84
2021/01/03 06:30:07;;;;;;;14.40;10.50;;;1.60;99.90;;;;;;4976368;28;20031;-84
2021/01/03 06:32:56;;;;;;;12.53;9.57;;;1.60;99.90;;;;;;4974947;28;20101;-84
2021/01/03 06:35:30;;;;;;;13.45;9.80;;;1.70;99.90;;;;;;4976178;28;20465;-84
2021/01/03 06:38:06;;;;;;;13.32;10.02;;;1.70;99.90;;;;;;4975068;28;20038;-84
2021/01/03 06:40:34;;;;;;;13.27;9.82;;;1.60;99.90;;;;;;4974999;28;20062;-84
2021/01/03 06:43:30;;;;;;;15.18;10.43;;;1.70;99.90;;;;;;4974929;28;20394;-84
2021/01/03 06:46:27;;;;;;;14.68;10.45;;;1.60;99.90;;;;;;4991036;28;20030;-84
2021/01/03 06:49:08;;;;;;;12.02;9.57;;;1.70;99.90;;;;;;4990116;28;20037;-84
2021/01/03 06:51:46;;;;;;;13.05;10.05;;;1.70;99.90;;;;;;4974770;28;20027;-84
2021/01/03 06:54:53;;;;;;;13.55;10.02;;;1.60;99.90;;;;;;4990856;28;20037;-84
2021/01/03 06:58:01;;;;;;;12.70;9.27;;;1.70;99.90;;;;;;4975963;28;20030;-83
2021/01/03 07:00:38;;;;;;;11.10;8.63;;;1.70;99.90;;;;;;4930362;28;20398;-83
2021/01/03 07:03:19;;;;;;;12.73;9.50;;;1.70;99.90;;;;;;4974608;28;20475;-84
2021/01/03 07:06:11;;;;;;;11.32;9.20;;;1.70;99.90;;;;;;4974532;28;20532;-84
2021/01/03 07:08:53;;;;;;;13.57;9.88;;;1.60;99.90;;;;;;4971196;28;20390;-84
2021/01/03 07:11:58;;;;;;;14.35;10.32;;;1.50;99.90;;;;;;4974544;28;20069;-84
2021/01/03 07:14:24;;;;;;;13.25;9.43;;;1.50;99.90;;;;;;4916189;29;20036;-84
2021/01/03 07:17:03;;;;;;;14.48;10.57;;;1.60;99.90;;;;;;4916077;29;20033;-84
2021/01/03 07:19:32;;;;;;;13.90;9.90;;;1.40;99.90;;;;;;4949837;28;20430;-84
2021/01/03 07:22:13;;;;;;;15.15;10.07;;;1.30;99.90;;;;;;4975739;28;20459;-84
2021/01/03 07:24:50;;;;;;;13.25;10.25;;;1.30;99.90;;;;;;4975346;28;20121;-84
2021/01/03 07:27:29;;;;;;;13.70;10.27;;;1.40;99.90;;;;;;4990372;28;20474;-85
2021/01/03 07:29:55;;;;;;;12.38;9.70;;;1.50;99.90;;;;;;4974066;28;20033;-84
2021/01/03 07:32:42;;;;;;;14.02;10.45;;;1.50;99.90;;;;;;4973828;28;20038;-84
2021/01/03 07:35:30;;;;;;;14.40;10.18;;;1.50;99.90;;;;;;4945465;28;20035;-84
2021/01/03 07:38:26;;;;;;;12.63;9.50;;;1.50;99.90;;;;;;4975230;28;20026;-84
2021/01/03 07:41:04;;;;;;;12.60;9.70;;;1.60;99.90;;;;;;4973832;28;20039;-84
2021/01/03 07:43:50;;;;;;;13.68;9.85;;;1.50;99.90;;;;;;4973862;28;20037;-84
2021/01/03 07:46:38;;;;;;;11.98;9.65;;;1.50;99.90;;;;;;4973709;28;20038;-83
2021/01/03 07:49:32;;;;;;;12.98;9.65;;;1.50;99.90;;;;;;4973765;28;20027;-84
2021/01/03 07:52:01;;;;;;;8.68;7.13;;;1.60;99.90;;;;;;4966419;28;20093;-84
2021/01/03 07:54:27;;;;;;;12.77;10.00;;;1.50;99.90;;;;;;4973702;28;20027;-84
2021/01/03 07:56:53;;;;;;;11.80;9.30;;;1.40;99.90;;;;;;4975139;28;20062;-83
2021/01/03 07:59:19;;;;;;;11.63;9.40;;;1.50;99.90;;;;;;4974828;28;20539;-84
2021/01/03 08:01:51;;;;;;;14.38;10.43;;;1.50;99.90;;;;;;4974625;28;20043;-84
2021/01/03 08:04:30;;;;;;;12.18;9.85;;;1.60;99.90;;;;;;4973637;28;20110;-84
2021/01/03 08:07:07;;;;;;;12.82;9.73;;;1.60;99.90;;;;;;4973611;28;20019;-84
2021/01/03 08:09:33;;;;;;;12.85;9.23;;;1.80;99.90;;;;;;4973536;28;20026;-84
2021/01/03 08:12:31;;;;;;;12.95;9.23;;;1.70;99.90;;;;;;4973527;28;20042;-84
2021/01/03 08:15:06;;;;;;;12.05;9.60;;;1.80;99.90;;;;;;4967220;28;20171;-85
2021/01/03 08:17:39;;;;;;;11.20;8.75;;;1.80;99.90;;;;;;4973468;28;20034;-85
2021/01/03 08:20:14;;;;;;;9.93;8.00;;;1.90;99.90;;;;;;4973511;28;20030;-85
2021/01/03 08:22:40;;;;;;;11.98;8.55;;;1.90;99.90;;;;;;4973284;28;20022;-85
2021/01/03 08:25:06;;;;;;;11.07;8.80;;;1.90;99.90;;;;;;4973455;28;20029;-85
2021/01/03 08:27:46;;;;;;;12.27;9.07;;;1.90;99.90;;;;;;4973296;28;20038;-85
2021/01/03 08:30:20;;;;;;;12.30;8.98;;;1.80;99.90;;;;;;4974724;28;20038;-86
2021/01/03 08:32:46;;;;;;;11.55;8.70;;;1.70;99.90;;;;;;4974861;28;20505;-85
2021/01/03 08:35:24;;;;;;;11.98;8.63;;;2.00;99.90;;;;;;4974553;28;20027;-85
2021/01/03 08:37:50;;;;;;;10.88;8.23;;;2.00;99.90;;;;;;4974617;28;20033;-85
2021/01/03 08:40:16;;;;;;;11.50;9.02;;;2.00;99.90;;;;;;4975559;28;20066;-85
2021/01/03 08:42:48;;;;;;;11.15;9.32;;;1.90;99.90;;;;;;4976047;28;20046;-85
2021/01/03 08:45:20;;;;;;;9.82;8.52;;;1.90;99.90;;;;;;4974033;28;20474;-85
2021/01/03 08:47:46;;;;;;;11.35;8.73;;;2.00;99.90;;;;;;4974313;28;20027;-86
2021/01/03 08:50:20;;;;;;;10.77;8.55;;;2.00;99.90;;;;;;4974485;28;20122;-86
2021/01/03 08:53:05;;;;;;;11.70;8.57;;;1.90;99.90;;;;;;4975789;28;20475;-86
2021/01/03 08:55:35;;;;;;;11.40;8.30;;;1.80;99.90;;;;;;4974520;28;20101;-86
2021/01/03 08:58:04;;;;;;;10.02;8.27;;;1.90;99.90;;;;;;4975198;28;20462;-85
2021/01/03 09:00:33;;;;;;;10.98;8.27;;;1.90;99.90;;;;;;4974915;28;20035;-85
2021/01/03 09:03:02;;;;;;;11.15;8.32;;;2.00;99.90;;;;;;4974264;28;20023;-85
2021/01/03 09:05:32;;;;;;;21.85;14.55;;;1.90;99.90;;;;;;4975618;28;20030;-85
2021/01/03 09:07:58;;;;;;;11.55;8.93;;;2.00;99.90;;;;;;4974298;28;20034;-85
2021/01/03 09:10:36;;;;;;;12.93;8.82;;;2.10;99.90;;;;;;4974160;28;20031;-85
2021/01/03 09:13:07;;;;;;;12.15;9.43;;;2.10;99.90;;;;;;4977461;28;20070;-85
2021/01/03 09:15:35;;;;;;;12.13;8.65;;;2.20;99.90;;;;;;4977220;28;20497;-85
2021/01/03 09:18:28;;;;;;;12.45;9.32;;;1.90;99.90;;;;;;4977586;28;20122;-85
2021/01/03 09:21:04;;;;;;;13.35;9.15;;;1.90;99.90;;;;;;4977475;28;20475;-86
2021/01/03 09:23:33;;;;;;;12.48;9.23;;;1.90;99.90;;;;;;4978353;28;20019;-85
2021/01/03 09:26:01;;;;;;;13.18;9.80;;;2.00;99.90;;;;;;4978803;28;20042;-85
2021/01/03 09:28:34;;;;;;;12.88;9.35;;;2.00;99.90;;;;;;4977925;28;20479;-87
2021/01/03 09:31:20;;;;;;;10.32;8.43;;;2.10;99.90;;;;;;4977747;28;20023;-87
2021/01/03 09:34:07;;;;;;;10.90;8.73;;;2.10;99.90;;;;;;4978886;28;20046;-87
2021/01/03 09:36:52;;;;;;;11.82;8.90;;;2.10;99.90;;;;;;4977738;28;20047;-86
2021/01/03 09:39:36;;;;;;;;;;;1.90;99.90;;;;;;4977426;28;20074;-86
2021/01/03 09:42:23;;;;;;;11.98;7.75;;;2.00;99.90;;;;;;4977426;28;19927;-81
2021/01/03 09:45:17;;;;;;;12.00;8.70;;;2.10;99.90;;;;;;4978856;28;20094;-86
2021/01/03 09:47:46;;;;;;;12.82;9.20;;;2.10;99.90;;;;;;4977094;28;20356;-85
2021/01/03 09:50:39;;;;;;;11.82;8.45;;;2.10;99.90;;;;;;4976612;28;20066;-87
2021/01/03 09:53:20;;;;;;;13.30;8.60;;;2.30;99.90;;;;;;4977017;28;20031;-87
2021/01/03 09:56:26;;;;;;;12.48;8.45;;;2.40;99.90;;;;;;4976995;28;20034;-85
2021/01/03 09:58:52;;;;;;;10.85;7.88;;;2.40;99.90;;;;;;4976372;28;20021;-84
2021/01/03 10:01:36;;;;;;;11.02;8.45;;;2.40;99.90;;;;;;4977304;28;20051;-85
2021/01/03 10:04:40;;;;;;;11.43;8.93;;;2.60;99.90;;;;;;4978187;28;20558;-86
2021/01/03 10:07:18;;;;;;;10.57;7.85;;;2.60;99.90;;;;;;4966057;28;20061;-86
2021/01/03 10:09:53;;;;;;;9.82;7.57;;;2.80;99.90;;;;;;4976578;28;20033;-85
2021/01/03 10:12:26;;;;;;;10.70;8.40;;;2.80;99.90;;;;;;4976297;28;20027;-87
2021/01/03 10:15:07;;;;;;;9.83;7.87;;;2.70;99.90;;;;;;4976964;28;20033;-85
2021/01/03 10:17:34;;;;;;;10.00;7.88;;;2.80;99.90;;;;;;4976579;28;20027;-85
2021/01/03 10:19:59;;;;;;;9.95;7.93;;;2.90;99.90;;;;;;4976682;28;20031;-87
2021/01/03 10:22:40;;;;;;;12.00;9.02;;;2.70;99.90;;;;;;4976524;28;20074;-85
2021/01/03 10:25:10;;;;;;;12.05;9.40;;;2.70;99.90;;;;;;4976806;28;20054;-87
2021/01/03 10:27:37;;;;;;;10.75;8.23;;;2.70;99.90;;;;;;4976570;28;20045;-86
2021/01/03 10:30:05;;;;;;;13.75;10.68;;;2.60;99.90;;;;;;4975845;28;20367;-85
2021/01/03 10:32:31;;;;;;;13.52;9.88;;;2.60;99.90;;;;;;4976546;28;20035;-85
2021/01/03 10:34:56;;;;;;;12.45;9.35;;;2.70;99.90;;;;;;4976044;28;20023;-85
2021/01/03 10:37:22;;;;;;;13.25;9.85;;;2.60;99.90;;;;;;4975766;28;20471;-85
2021/01/03 10:39:48;;;;;;;10.98;8.75;;;2.50;99.90;;;;;;4975887;28;20042;-85
2021/01/03 10:42:14;;;;;;;16.70;10.25;;;2.70;99.90;;;;;;4975805;28;20027;-85
2021/01/03 10:44:39;;;;;;;14.50;10.40;;;2.60;99.90;;;;;;4975668;28;20359;-85
2021/01/03 10:47:05;;;;;;;11.20;8.45;;;2.50;99.90;;;;;;4975717;28;20442;-85
2021/01/03 10:49:31;;;;;;;14.82;11.15;;;2.70;99.90;;;;;;4975501;28;20034;-85
2021/01/03 10:51:57;;;;;;;17.17;11.68;;;2.80;99.90;;;;;;4975800;28;20033;-85
2021/01/03 10:54:25;;;;;;;16.42;11.85;;;2.90;99.90;;;;;;4975488;28;20126;-85
2021/01/03 10:56:52;;;;;;;13.00;10.00;;;2.90;99.90;;;;;;4976898;28;20390;-85
2021/01/03 10:59:19;;;;;;;12.30;9.35;;;2.70;99.90;;;;;;4976696;28;20462;-86
2021/01/03 11:01:46;;;;;;;12.48;9.25;;;2.60;99.90;;;;;;4975643;28;20387;-86
2021/01/03 11:04:15;;;;;;;12.88;9.52;;;2.60;99.90;;;;;;4975433;28;20029;-86
2021/01/03 11:06:45;;;;;;;14.35;10.43;;;2.60;99.90;;;;;;4975597;28;20027;-85
2021/01/03 11:09:34;;;;;;;15.52;10.80;;;2.70;99.90;;;;;;4975534;28;20022;-85
2021/01/03 11:12:03;;;;;;;13.63;9.95;;;2.60;99.90;;;;;;4975136;28;20061;-86
2021/01/03 11:14:29;;;;;;;12.65;9.25;;;2.50;99.90;;;;;;4975022;28;20027;-85
2021/01/03 11:16:55;;;;;;;26.92;19.10;;;2.50;99.90;;;;;;4975582;28;20093;-84
2021/01/03 11:19:22;;;;;;;17.77;12.57;;;2.40;99.90;;;;;;4975088;28;20032;-84
2021/01/03 11:21:52;;;;;;;26.05;18.92;;;2.20;99.90;;;;;;4974990;28;20446;-84
2021/01/03 11:24:18;;;;;;;16.55;12.27;;;2.20;99.90;;;;;;4975246;28;20057;-84
2021/01/03 11:26:44;;;;;;;15.52;12.07;;;2.20;99.90;;;;;;4974813;28;20030;-84
2021/01/03 11:29:13;;;;;;;49.15;30.42;;;2.20;99.90;;;;;;4974692;28;20122;-84
2021/01/03 11:31:45;;;;;;;17.48;12.00;;;2.20;99.90;;;;;;4974776;28;20027;-84
2021/01/03 11:34:14;;;;;;;12.23;9.38;;;2.10;99.90;;;;;;4974611;28;20101;-83
2021/01/03 11:36:45;;;;;;;12.93;9.15;;;2.20;99.90;;;;;;4974147;28;20046;-84
2021/01/03 11:39:10;;;;;;;12.90;9.73;;;2.10;99.90;;;;;;4975452;28;20066;-84
2021/01/03 11:41:36;;;;;;;12.18;9.02;;;2.40;99.90;;;;;;4974679;28;20058;-85
2021/01/03 11:44:03;;;;;;;12.68;9.40;;;2.40;99.90;;;;;;4974851;28;20023;-84
2021/01/03 11:46:29;;;;;;;12.27;9.18;;;2.30;99.90;;;;;;4974596;28;20105;-84
2021/01/03 11:48:55;;;;;;;12.02;9.07;;;2.10;99.90;;;;;;4974826;28;20030;-84
2021/01/03 11:51:21;;;;;;;13.48;9.40;;;2.10;99.90;;;;;;4975462;28;20027;-84
2021/01/03 11:53:46;;;;;;;13.20;10.05;;;2.10;99.90;;;;;;4974129;28;20070;-84
2021/01/03 11:56:18;;;;;;;12.07;8.73;;;2.20;99.90;;;;;;4974231;28;20034;-86
2021/01/03 11:58:44;;;;;;;12.73;8.50;;;2.20;99.90;;;;;;4974322;28;20037;-84
2021/01/03 12:01:09;;;;;;;9.55;7.45;;;2.20;99.90;;;;;;4975812;28;20105;-83
2021/01/03 12:03:35;;;;;;;12.63;9.13;;;2.30;99.90;;;;;;4975618;28;20030;-84
2021/01/03 12:06:01;;;;;;;16.80;12.52;;;2.40;99.90;;;;;;4974550;28;20050;-83
2021/01/03 12:08:26;;;;;;;13.93;9.75;;;2.50;99.90;;;;;;4975586;28;20363;-83
2021/01/03 12:10:52;;;;;;;13.15;9.18;;;2.40;99.90;;;;;;4974038;28;20058;-84
2021/01/03 12:13:18;;;;;;;11.73;8.73;;;2.40;99.90;;;;;;4974092;28;20031;-83
2021/01/03 12:15:43;;;;;;;18.05;11.70;;;2.50;99.90;;;;;;4974134;28;20023;-84
2021/01/03 12:18:09;;;;;;;10.43;7.72;;;2.60;99.90;;;;;;4974252;28;20086;-84
2021/01/03 12:20:35;;;;;;;11.43;8.18;;;2.60;99.90;;;;;;4975466;28;20038;-84
2021/01/03 12:23:00;;;;;;;11.32;8.23;;;2.50;99.90;;;;;;4975085;28;20390;-84
2021/01/03 12:25:26;;;;;;;12.45;8.70;;;2.60;99.90;;;;;;4974279;28;20029;-83
2021/01/03 12:27:52;;;;;;;11.85;8.70;;;2.60;99.90;;;;;;4975480;28;20055;-87
2021/01/03 12:30:18;;;;;;;12.82;9.20;;;2.60;99.90;;;;;;4974129;28;20046;-83
2021/01/03 12:32:44;;;;;;;10.80;7.82;;;2.50;99.90;;;;;;4973785;28;20045;-84
2021/01/03 12:35:10;;;;;;;10.85;8.48;;;2.40;99.90;;;;;;4974181;28;20406;-84
2021/01/03 12:37:39;;;;;;;12.55;8.98;;;2.30;99.90;;;;;;4973866;28;20038;-84
2021/01/03 12:40:07;;;;;;;10.18;8.32;;;2.30;99.90;;;;;;4973831;28;20035;-83
2021/01/03 12:42:34;;;;;;;12.63;9.25;;;2.30;99.90;;;;;;4973705;28;20526;-84
2021/01/03 12:45:00;;;;;;;10.40;7.97;;;2.30;99.90;;;;;;4973755;28;20023;-84
2021/01/03 12:47:26;;;;;;;9.88;7.53;;;2.50;99.90;;;;;;4976470;28;20069;-85
2021/01/03 12:49:51;;;;;;;10.50;7.70;;;2.70;99.90;;;;;;4977457;28;20034;-84
2021/01/03 12:52:17;;;;;;;11.50;7.72;;;2.60;99.90;;;;;;4977521;28;20390;-84
2021/01/03 12:54:43;;;;;;;13.32;9.02;;;2.50;99.90;;;;;;4977404;28;20034;-83
2021/01/03 12:57:09;;;;;;;13.68;8.80;;;2.50;99.90;;;;;;4977310;28;20023;-84
2021/01/03 12:59:34;;;;;;;8.73;7.00;;;2.40;99.90;;;;;;4978770;28;20038;-83
2021/01/03 13:02:00;;;;;;;11.60;8.02;;;2.60;99.90;;;;;;4977318;28;20026;-84
2021/01/03 13:04:25;;;;;;;12.07;8.85;;;2.60;99.90;;;;;;4977392;28;20030;-84
2021/01/03 13:06:51;;;;;;;11.02;7.70;;;2.60;99.90;;;;;;4979359;28;20533;-83
2021/01/03 13:09:20;;;;;;;10.82;8.18;;;2.50;99.90;;;;;;4977162;28;20023;-84